Austin, Texas
Traffic Map
Current Weather Conditions
Austin, Texas
Overcast
Overcast
13°
Feels Like: 13°
Wind Chill: 13° Ceiling: 1000
Heat Index: 13° Visibility: 10mi
Dew Point: 11° Wind: 5mph
Humidity: 86% Direction: ° ()
Pressure: 30.03in Gusts: 0mph
Raw Report DataKATT 182051Z AUTO VRB04KT 10SM OVC010 13/11 A3003 RMK AO2 SLP170 T01280106 56025 $
Traffic Incident Summary
Active as of:
Severity:
Category:
InformationThere was an issue retrieving the traffic information for this location. Please try a different location or try again shortly.
Advertisements
Track Severe Weather on mobile